AirNav   Duncan Aviation - Near you to keep you flying
 
 1001 users online  

AZ52 Horseshoe Dam Heliport
Carefree, Arizona, USA

GOING TO CAREFREE?


FAA INFORMATION EFFECTIVE 08 SEPTEMBER 2022

Location

FAA Identifier: AZ52
Lat/Long: 33-58-55.1390N 111-42-59.5190W
33-58.918983N 111-42.991983W
33.9819831,-111.7165331
(estimated)
Elevation: 2020 ft. / 616 m (estimated)
Variation: 13E (1985)
From city: 14 miles NE of CAREFREE, AZ
Time zone: UTC -7 (year round; does not observe DST)
Zip code: 85262

Heliport Operations

Heliport use: Private use. Permission required prior to landing
Activation date: 09/1982
Control tower: no
ARTCC: ALBUQUERQUE CENTER
FSS: PRESCOTT FLIGHT SERVICE STATION
Attendance: UNATNDD
Wind indicator: lighted
Segmented circle: no

Heliport Communications

WX AWOS-1 at 18AZ (13 nm SW): 125.625 (480-488-7882)

Nearby radio navigation aids

VOR radial/distance  VOR name  Freq  Var
PXRr009/35.3PHOENIX VORTAC115.6012E

Heliport Services

Runway Information

Helipad H1

Dimensions: 30 x 20 ft. / 9 x 6 m
Surface: concrete
Latitude: 33-58.919000N
Longitude: 111-42.992000W
Elevation: 2020.0 ft.
Traffic pattern: leftleft

Heliport Ownership and Management from official FAA records

Ownership: Privately-owned
Owner: SALT RIVER PROJECT
2601 E. AIRLANE
PHOENIX, AZ 85034
Phone 602-236-2479
Manager: JEFFREY R CAMPBELL
2601 E. AIRLANE
PHOENIX, AZ 85034
Phone 480-375-1003

Additional Remarks

A52-H1 10' BRUSH ADJACENT TO PAD NORTH.
FOR CD CTC PHOENIX APCH AT 602-306-2565.

Instrument Procedures

There are no published instrument procedures at AZ52.

Some nearby airports with instrument procedures:

KSDL - Scottsdale Airport (24 nm SW)
KPAN - Payson Airport (25 nm NE)
KDVT - Phoenix Deer Valley Airport (25 nm SW)
KFFZ - Falcon Field Airport (31 nm S)
KPHX - Phoenix Sky Harbor International Airport (36 nm SW)
 
Loc | Ops | Rwys | IFR | FBO | Links
Com | Nav | Svcs | Stats | Notes
Area around AZ52 (Horseshoe Dam Heliport)
 
Road maps at: MapQuest Bing Google
 
Aerial photo
No photo
 
Sectional chart

 
Airport distance calculator
Flying to Horseshoe Dam Heliport? Find the distance to fly.

From to AZ52

Sunrise and sunset
Times for 02-Oct-2022
 Local
(UTC-7)
 Zulu
(UTC)
Morning civil twilight05:5812:58
Sunrise06:2313:23
Sunset18:0901:09
Evening civil twilight18:3401:34

Current date and time
Zulu (UTC)  02-Oct-2022 20:41:18
Local (UTC-7)  02-Oct-2022 13:41:18
 
METAR
KSDL 
24nm SW 
021953Z VRB05KT 10SM CLR 33/12 A2992 RMK AO2 SLP104 T03280122
KPAN 
25nm NE 
022015Z AUTO VRB04G14KT 10SM FEW095 26/08 A3016 RMK AO2 PWINO TSNO
KDVT 
25nm SW 
021953Z 10SM CLR 33/12 A2991 RMK AO2 SLP102 T03280117
KFFZ 
31nm S 
021954Z 14005KT 10SM CLR 34/13 A2989 RMK AO2 SLP097 T03390133
KPHX 
37nm SW 
021951Z VRB03KT 10SM FEW100 FEW250 34/13 A2987 RMK AO2 SLP095 CB DSNT NW T03440128 $
KGEU 
40nm SW 
021947Z VRB04KT 10SM SCT100 33/14 A2987
KIWA 
41nm S 
021950Z VRB04KT 10SM CLR 33/12 A2991
KLUF 
43nm SW 
021955Z AUTO 00000KT 10SM CLR 34/14 A2987 RMK AO2 SLP099 T03390139 $
KCHD 
43nm S 
021947Z 00000KT 10SM CLR 33/12 A2990
KGYR 
47nm SW 
021747Z VRB04KT 10SM FEW070 31/18 A2994
TAF
KSDL 
24nm SW 
021720Z 0218/0318 VRB04KT P6SM FEW100 FEW150 FM022100 21007KT P6SM FEW100 FEW150 FM030300 04005KT P6SM FEW100 SCT150 SCT250 FM030800 VRB03KT P6SM FEW100 FEW150
KDVT 
25nm SW 
021720Z 0218/0318 18008KT P6SM FEW100 FEW150 FM022200 23009KT P6SM FEW100 FEW150 FM030400 03008KT P6SM FEW100 SCT150 SCT250 FM030900 VRB04KT P6SM FEW100 FEW150
NOTAMs
Click for the latest NOTAMs
NOTAMs are issued by the DoD/FAA and will open in a separate window not controlled by AirNav.

 

 
 

Would you like to see your business listed on this page?

 If your business provides an interesting product or service to pilots, flight crews, aircraft, or users of the Horseshoe Dam Heliport, you should consider listing it here.  To start the listing process, click on the button below
 
Add a business
 

Other Pages about Horseshoe Dam Heliport

Update a link
 
Copyright © AirNav, LLC. All rights reserved. Privacy Policy  Contact